sensor_id;sensor_type;location;lat;lon;timestamp;P1;durP1;ratioP1;P2;durP2;ratioP2
46339;SDS011;47273;49.274;8.708;2022-11-15T04:30:37;30.35;;;27.38;;
46339;SDS011;47273;49.274;8.708;2022-11-15T04:33:03;30.45;;;27.55;;
46339;SDS011;47273;49.274;8.708;2022-11-15T04:35:29;30.60;;;27.60;;
46339;SDS011;47273;49.274;8.708;2022-11-15T04:37:56;31.83;;;29.05;;
46339;SDS011;47273;49.274;8.708;2022-11-15T04:40:22;34.22;;;31.00;;
46339;SDS011;47273;49.274;8.708;2022-11-15T04:42:47;31.40;;;28.70;;
46339;SDS011;47273;49.274;8.708;2022-11-15T04:45:16;32.17;;;29.38;;
46339;SDS011;47273;49.274;8.708;2022-11-15T04:47:44;33.17;;;29.65;;
46339;SDS011;47273;49.274;8.708;2022-11-15T04:50:11;32.53;;;29.63;;
46339;SDS011;47273;49.274;8.708;2022-11-15T04:52:39;30.63;;;27.92;;
46339;SDS011;47273;49.274;8.708;2022-11-15T04:55:06;33.05;;;30.05;;
46339;SDS011;47273;49.274;8.708;2022-11-15T04:57:32;30.77;;;28.15;;
46339;SDS011;47273;49.274;8.708;2022-11-15T04:59:57;32.22;;;29.15;;
46339;SDS011;47273;49.274;8.708;2022-11-15T05:02:24;31.38;;;28.50;;
46339;SDS011;47273;49.274;8.708;2022-11-15T05:05:10;31.33;;;28.33;;
46339;SDS011;47273;49.274;8.708;2022-11-15T05:07:35;31.40;;;28.30;;
46339;SDS011;47273;49.274;8.708;2022-11-15T05:10:01;30.48;;;27.20;;
46339;SDS011;47273;49.274;8.708;2022-11-15T05:12:26;32.08;;;28.33;;
46339;SDS011;47273;49.274;8.708;2022-11-15T05:14:52;31.00;;;27.80;;
46339;SDS011;47273;49.274;8.708;2022-11-15T05:17:18;30.45;;;27.25;;
46339;SDS011;47273;49.274;8.708;2022-11-15T05:19:43;34.85;;;26.95;;
46339;SDS011;47273;49.274;8.708;2022-11-15T05:22:09;29.48;;;26.67;;
46339;SDS011;47273;49.274;8.708;2022-11-15T05:24:35;29.33;;;26.42;;
46339;SDS011;47273;49.274;8.708;2022-11-15T05:27:00;30.17;;;26.35;;
46339;SDS011;47273;49.274;8.708;2022-11-15T05:29:26;29.48;;;26.67;;
46339;SDS011;47273;49.274;8.708;2022-11-15T05:31:52;28.45;;;25.65;;
46339;SDS011;47273;49.274;8.708;2022-11-15T05:34:18;28.40;;;25.40;;
46339;SDS011;47273;49.274;8.708;2022-11-15T05:36:43;29.30;;;26.23;;
46339;SDS011;47273;49.274;8.708;2022-11-15T05:39:10;29.50;;;26.60;;
46339;SDS011;47273;49.274;8.708;2022-11-15T05:44:08;30.33;;;27.45;;
46339;SDS011;47273;49.274;8.708;2022-11-15T05:46:36;31.75;;;28.55;;
46339;SDS011;47273;49.274;8.708;2022-11-15T05:49:04;29.80;;;27.08;;
46339;SDS011;47273;49.274;8.708;2022-11-15T05:51:34;30.15;;;27.33;;
46339;SDS011;47273;49.274;8.708;2022-11-15T05:54:00;30.38;;;27.58;;
46339;SDS011;47273;49.274;8.708;2022-11-15T05:56:26;30.42;;;27.42;;
46339;SDS011;47273;49.274;8.708;2022-11-15T05:58:53;29.67;;;26.98;;
46339;SDS011;47273;49.274;8.708;2022-11-15T06:01:20;30.77;;;28.00;;
46339;SDS011;47273;49.274;8.708;2022-11-15T06:03:46;31.27;;;28.40;;
46339;SDS011;47273;49.274;8.708;2022-11-15T06:06:12;32.33;;;29.20;;
46339;SDS011;47273;49.274;8.708;2022-11-15T06:08:38;31.25;;;28.35;;
46339;SDS011;47273;49.274;8.708;2022-11-15T06:11:04;30.63;;;27.67;;
46339;SDS011;47273;49.274;8.708;2022-11-15T06:13:31;29.90;;;27.10;;
46339;SDS011;47273;49.274;8.708;2022-11-15T06:15:57;30.88;;;27.80;;
46339;SDS011;47273;49.274;8.708;2022-11-15T06:18:23;29.52;;;26.63;;
46339;SDS011;47273;49.274;8.708;2022-11-15T06:20:50;30.98;;;27.75;;
46339;SDS011;47273;49.274;8.708;2022-11-15T06:23:31;30.73;;;27.58;;
46339;SDS011;47273;49.274;8.708;2022-11-15T06:25:58;30.67;;;27.55;;
46339;SDS011;47273;49.274;8.708;2022-11-15T06:28:27;30.55;;;27.45;;
46339;SDS011;47273;49.274;8.708;2022-11-15T06:30:54;29.73;;;26.92;;
46339;SDS011;47273;49.274;8.708;2022-11-15T06:33:20;31.05;;;28.00;;
46339;SDS011;47273;49.274;8.708;2022-11-15T06:35:45;30.52;;;27.35;;
46339;SDS011;47273;49.274;8.708;2022-11-15T06:38:11;31.50;;;28.23;;
46339;SDS011;47273;49.274;8.708;2022-11-15T06:40:37;30.35;;;27.45;;
46339;SDS011;47273;49.274;8.708;2022-11-15T06:43:04;30.08;;;27.17;;
46339;SDS011;47273;49.274;8.708;2022-11-15T06:45:31;29.88;;;26.77;;
46339;SDS011;47273;49.274;8.708;2022-11-15T06:47:56;31.45;;;26.73;;
46339;SDS011;47273;49.274;8.708;2022-11-15T06:50:22;29.77;;;27.08;;
46339;SDS011;47273;49.274;8.708;2022-11-15T06:52:48;30.48;;;27.63;;
46339;SDS011;47273;49.274;8.708;2022-11-15T06:55:14;32.38;;;29.13;;
46339;SDS011;47273;49.274;8.708;2022-11-15T06:57:49;32.15;;;28.58;;
46339;SDS011;47273;49.274;8.708;2022-11-15T07:00:16;31.27;;;28.58;;
46339;SDS011;47273;49.274;8.708;2022-11-15T07:02:43;31.17;;;28.23;;
46339;SDS011;47273;49.274;8.708;2022-11-15T07:05:09;39.50;;;28.52;;
46339;SDS011;47273;49.274;8.708;2022-11-15T07:07:35;31.70;;;28.60;;
46339;SDS011;47273;49.274;8.708;2022-11-15T07:10:01;30.88;;;28.17;;
46339;SDS011;47273;49.274;8.708;2022-11-15T07:12:42;29.08;;;25.98;;
46339;SDS011;47273;49.274;8.708;2022-11-15T07:15:11;30.40;;;26.70;;
46339;SDS011;47273;49.274;8.708;2022-11-15T07:17:37;47.53;;;31.67;;
46339;SDS011;47273;49.274;8.708;2022-11-15T07:20:02;114.00;;;58.05;;
46339;SDS011;47273;49.274;8.708;2022-11-15T07:22:28;34.30;;;30.65;;
46339;SDS011;47273;49.274;8.708;2022-11-15T07:24:54;31.48;;;28.38;;
46339;SDS011;47273;49.274;8.708;2022-11-15T07:27:19;29.92;;;27.20;;
46339;SDS011;47273;49.274;8.708;2022-11-15T07:29:45;30.05;;;27.05;;
46339;SDS011;47273;49.274;8.708;2022-11-15T07:32:11;29.30;;;26.63;;
46339;SDS011;47273;49.274;8.708;2022-11-15T07:34:36;30.25;;;27.33;;
46339;SDS011;47273;49.274;8.708;2022-11-15T07:37:02;30.20;;;27.33;;
46339;SDS011;47273;49.274;8.708;2022-11-15T07:39:28;29.60;;;26.70;;
46339;SDS011;47273;49.274;8.708;2022-11-15T07:41:53;29.73;;;26.88;;
46339;SDS011;47273;49.274;8.708;2022-11-15T07:44:39;30.00;;;26.88;;
46339;SDS011;47273;49.274;8.708;2022-11-15T07:47:04;32.72;;;27.70;;
46339;SDS011;47273;49.274;8.708;2022-11-15T07:49:30;29.58;;;26.65;;
46339;SDS011;47273;49.274;8.708;2022-11-15T07:51:56;30.55;;;27.45;;
46339;SDS011;47273;49.274;8.708;2022-11-15T07:54:21;30.38;;;27.55;;
46339;SDS011;47273;49.274;8.708;2022-11-15T07:56:47;32.35;;;29.05;;
46339;SDS011;47273;49.274;8.708;2022-11-15T07:59:13;35.30;;;31.75;;
46339;SDS011;47273;49.274;8.708;2022-11-15T08:01:38;40.67;;;36.58;;
46339;SDS011;47273;49.274;8.708;2022-11-15T08:04:04;36.65;;;32.83;;
46339;SDS011;47273;49.274;8.708;2022-11-15T08:06:29;33.20;;;29.52;;
46339;SDS011;47273;49.274;8.708;2022-11-15T08:08:55;30.60;;;27.65;;
46339;SDS011;47273;49.274;8.708;2022-11-15T08:11:21;33.63;;;28.83;;
46339;SDS011;47273;49.274;8.708;2022-11-15T08:13:46;31.95;;;28.60;;
46339;SDS011;47273;49.274;8.708;2022-11-15T08:16:12;30.33;;;27.27;;
46339;SDS011;47273;49.274;8.708;2022-11-15T08:18:37;30.67;;;27.48;;
46339;SDS011;47273;49.274;8.708;2022-11-15T08:21:03;30.08;;;27.02;;
46339;SDS011;47273;49.274;8.708;2022-11-15T08:23:29;30.10;;;27.20;;
46339;SDS011;47273;49.274;8.708;2022-11-15T08:25:59;30.67;;;27.40;;
46339;SDS011;47273;49.274;8.708;2022-11-15T08:28:26;30.10;;;27.17;;
46339;SDS011;47273;49.274;8.708;2022-11-15T08:30:52;30.48;;;27.48;;
46339;SDS011;47273;49.274;8.708;2022-11-15T08:33:29;29.25;;;26.63;;
46339;SDS011;47273;49.274;8.708;2022-11-15T08:35:58;28.85;;;26.00;;
46339;SDS011;47273;49.274;8.708;2022-11-15T08:38:25;29.00;;;26.20;;
46339;SDS011;47273;49.274;8.708;2022-11-15T08:40:51;29.15;;;26.30;;
46339;SDS011;47273;49.274;8.708;2022-11-15T08:43:23;31.25;;;28.40;;
46339;SDS011;47273;49.274;8.708;2022-11-15T08:45:49;31.98;;;28.88;;
46339;SDS011;47273;49.274;8.708;2022-11-15T08:48:14;31.40;;;28.35;;
46339;SDS011;47273;49.274;8.708;2022-11-15T08:50:40;30.98;;;28.02;;
46339;SDS011;47273;49.274;8.708;2022-11-15T08:53:08;32.25;;;28.52;;
46339;SDS011;47273;49.274;8.708;2022-11-15T08:55:38;32.00;;;28.63;;
46339;SDS011;47273;49.274;8.708;2022-11-15T08:58:04;30.83;;;27.75;;
46339;SDS011;47273;49.274;8.708;2022-11-15T09:00:30;31.73;;;27.70;;
46339;SDS011;47273;49.274;8.708;2022-11-15T09:02:56;30.30;;;27.60;;
46339;SDS011;47273;49.274;8.708;2022-11-15T09:05:21;30.20;;;27.30;;
46339;SDS011;47273;49.274;8.708;2022-11-15T09:07:47;30.27;;;27.48;;
46339;SDS011;47273;49.274;8.708;2022-11-15T09:10:19;29.40;;;26.73;;
46339;SDS011;47273;49.274;8.708;2022-11-15T09:12:44;31.75;;;28.35;;
46339;SDS011;47273;49.274;8.708;2022-11-15T09:15:24;31.38;;;28.05;;
46339;SDS011;47273;49.274;8.708;2022-11-15T09:17:52;30.45;;;27.67;;
46339;SDS011;47273;49.274;8.708;2022-11-15T09:20:17;29.80;;;27.00;;
46339;SDS011;47273;49.274;8.708;2022-11-15T09:22:43;29.83;;;27.13;;
46339;SDS011;47273;49.274;8.708;2022-11-15T09:25:11;30.23;;;27.63;;
46339;SDS011;47273;49.274;8.708;2022-11-15T09:27:37;31.33;;;28.38;;
46339;SDS011;47273;49.274;8.708;2022-11-15T09:30:03;32.90;;;29.80;;
46339;SDS011;47273;49.274;8.708;2022-11-15T09:32:29;31.58;;;28.42;;
46339;SDS011;47273;49.274;8.708;2022-11-15T09:38:29;32.40;;;29.30;;
46339;SDS011;47273;49.274;8.708;2022-11-15T09:41:14;32.53;;;29.38;;
46339;SDS011;47273;49.274;8.708;2022-11-15T09:49:38;32.42;;;28.98;;
46339;SDS011;47273;49.274;8.708;2022-11-15T09:52:04;31.48;;;28.45;;
46339;SDS011;47273;49.274;8.708;2022-11-15T09:54:36;31.17;;;28.10;;
46339;SDS011;47273;49.274;8.708;2022-11-15T09:57:14;32.30;;;29.00;;
46339;SDS011;47273;49.274;8.708;2022-11-15T10:05:12;30.83;;;27.88;;
46339;SDS011;47273;49.274;8.708;2022-11-15T10:07:58;31.17;;;28.13;;
46339;SDS011;47273;49.274;8.708;2022-11-15T10:10:39;30.98;;;27.83;;
46339;SDS011;47273;49.274;8.708;2022-11-15T10:13:14;29.58;;;26.77;;
46339;SDS011;47273;49.274;8.708;2022-11-15T10:15:48;30.90;;;27.83;;
46339;SDS011;47273;49.274;8.708;2022-11-15T10:18:16;31.38;;;28.35;;
46339;SDS011;47273;49.274;8.708;2022-11-15T10:20:47;31.48;;;28.38;;
46339;SDS011;47273;49.274;8.708;2022-11-15T10:23:16;30.38;;;27.17;;
46339;SDS011;47273;49.274;8.708;2022-11-15T10:25:44;30.38;;;27.58;;
46339;SDS011;47273;49.274;8.708;2022-11-15T10:28:16;30.15;;;27.25;;
46339;SDS011;47273;49.274;8.708;2022-11-15T10:41:16;31.52;;;28.15;;
46339;SDS011;47273;49.274;8.708;2022-11-15T10:43:43;31.48;;;28.08;;
46339;SDS011;47273;49.274;8.708;2022-11-15T10:46:20;30.15;;;27.05;;
46339;SDS011;47273;49.274;8.708;2022-11-15T10:48:47;31.35;;;27.50;;
46339;SDS011;47273;49.274;8.708;2022-11-15T10:51:26;30.77;;;27.52;;
46339;SDS011;47273;49.274;8.708;2022-11-15T10:53:57;30.33;;;27.23;;
46339;SDS011;47273;49.274;8.708;2022-11-15T10:56:25;29.55;;;26.75;;
46339;SDS011;47273;49.274;8.708;2022-11-15T10:58:55;29.23;;;26.30;;
46339;SDS011;47273;49.274;8.708;2022-11-15T11:01:23;30.70;;;27.60;;
46339;SDS011;47273;49.274;8.708;2022-11-15T11:04:04;30.30;;;27.05;;
46339;SDS011;47273;49.274;8.708;2022-11-15T11:06:45;29.77;;;26.80;;
46339;SDS011;47273;49.274;8.708;2022-11-15T11:09:30;30.02;;;27.15;;
46339;SDS011;47273;49.274;8.708;2022-11-15T11:11:58;30.30;;;27.50;;
46339;SDS011;47273;49.274;8.708;2022-11-15T11:14:26;31.05;;;27.75;;
46339;SDS011;47273;49.274;8.708;2022-11-15T11:17:06;31.52;;;28.48;;
46339;SDS011;47273;49.274;8.708;2022-11-15T11:22:53;32.13;;;28.85;;
46339;SDS011;47273;49.274;8.708;2022-11-15T11:33:30;30.95;;;28.05;;
46339;SDS011;47273;49.274;8.708;2022-11-15T11:41:15;31.73;;;28.73;;
46339;SDS011;47273;49.274;8.708;2022-11-15T11:47:11;35.50;;;28.08;;
46339;SDS011;47273;49.274;8.708;2022-11-15T11:57:35;30.42;;;26.95;;
46339;SDS011;47273;49.274;8.708;2022-11-15T12:00:24;31.05;;;27.88;;
46339;SDS011;47273;49.274;8.708;2022-11-15T12:03:14;30.25;;;27.25;;
46339;SDS011;47273;49.274;8.708;2022-11-15T12:05:49;29.48;;;26.50;;
46339;SDS011;47273;49.274;8.708;2022-11-15T12:08:24;28.60;;;25.45;;
46339;SDS011;47273;49.274;8.708;2022-11-15T12:11:20;28.45;;;25.67;;
46339;SDS011;47273;49.274;8.708;2022-11-15T12:14:11;29.35;;;26.67;;
46339;SDS011;47273;49.274;8.708;2022-11-15T12:16:44;31.10;;;27.98;;
46339;SDS011;47273;49.274;8.708;2022-11-15T12:19:10;32.00;;;28.67;;
46339;SDS011;47273;49.274;8.708;2022-11-15T12:21:47;31.40;;;28.45;;
46339;SDS011;47273;49.274;8.708;2022-11-15T12:30:16;33.13;;;29.63;;
46339;SDS011;47273;49.274;8.708;2022-11-15T12:33:00;32.58;;;29.42;;
46339;SDS011;47273;49.274;8.708;2022-11-15T12:38:04;29.23;;;26.33;;
46339;SDS011;47273;49.274;8.708;2022-11-15T12:40:30;27.90;;;25.20;;
46339;SDS011;47273;49.274;8.708;2022-11-15T12:43:35;29.70;;;25.75;;
46339;SDS011;47273;49.274;8.708;2022-11-15T12:46:04;28.58;;;25.77;;
46339;SDS011;47273;49.274;8.708;2022-11-15T12:51:00;29.55;;;26.77;;
46339;SDS011;47273;49.274;8.708;2022-11-15T13:12:49;28.95;;;26.25;;
46339;SDS011;47273;49.274;8.708;2022-11-15T13:14:51;29.45;;;26.85;;
46339;SDS011;47273;49.274;8.708;2022-11-15T13:19:44;29.40;;;26.55;;
46339;SDS011;47273;49.274;8.708;2022-11-15T13:22:12;34.00;;;30.40;;
46339;SDS011;47273;49.274;8.708;2022-11-15T13:24:57;34.55;;;31.00;;
46339;SDS011;47273;49.274;8.708;2022-11-15T13:27:23;89.28;;;67.35;;
46339;SDS011;47273;49.274;8.708;2022-11-15T13:29:50;42.03;;;36.88;;
46339;SDS011;47273;49.274;8.708;2022-11-15T13:32:17;34.08;;;30.67;;
46339;SDS011;47273;49.274;8.708;2022-11-15T13:34:46;33.25;;;30.13;;
46339;SDS011;47273;49.274;8.708;2022-11-15T13:37:31;34.58;;;31.08;;
46339;SDS011;47273;49.274;8.708;2022-11-15T13:40:20;36.83;;;33.00;;
46339;SDS011;47273;49.274;8.708;2022-11-15T13:42:52;39.50;;;35.28;;
46339;SDS011;47273;49.274;8.708;2022-11-15T13:45:18;32.72;;;29.27;;
46339;SDS011;47273;49.274;8.708;2022-11-15T13:47:44;31.40;;;28.30;;
46339;SDS011;47273;49.274;8.708;2022-11-15T13:50:16;32.70;;;29.30;;
46339;SDS011;47273;49.274;8.708;2022-11-15T13:52:45;36.70;;;32.80;;
46339;SDS011;47273;49.274;8.708;2022-11-15T13:55:15;39.95;;;35.50;;
46339;SDS011;47273;49.274;8.708;2022-11-15T14:02:51;34.60;;;31.08;;
46339;SDS011;47273;49.274;8.708;2022-11-15T14:05:20;43.60;;;36.00;;
46339;SDS011;47273;49.274;8.708;2022-11-15T14:07:54;41.67;;;37.17;;
46339;SDS011;47273;49.274;8.708;2022-11-15T14:10:30;34.88;;;31.42;;
46339;SDS011;47273;49.274;8.708;2022-11-15T14:12:58;34.08;;;30.17;;
46339;SDS011;47273;49.274;8.708;2022-11-15T14:17:55;32.65;;;29.08;;
46339;SDS011;47273;49.274;8.708;2022-11-15T14:20:29;34.78;;;31.20;;
46339;SDS011;47273;49.274;8.708;2022-11-15T14:23:17;39.15;;;32.30;;
46339;SDS011;47273;49.274;8.708;2022-11-15T14:25:53;34.83;;;31.20;;
46339;SDS011;47273;49.274;8.708;2022-11-15T14:28:34;35.30;;;31.63;;
46339;SDS011;47273;49.274;8.708;2022-11-15T14:31:06;33.10;;;29.90;;
46339;SDS011;47273;49.274;8.708;2022-11-15T14:33:38;33.38;;;29.85;;
46339;SDS011;47273;49.274;8.708;2022-11-15T14:36:11;32.45;;;29.25;;
46339;SDS011;47273;49.274;8.708;2022-11-15T14:38:38;39.85;;;35.63;;
46339;SDS011;47273;49.274;8.708;2022-11-15T14:41:04;38.97;;;34.88;;
46339;SDS011;47273;49.274;8.708;2022-11-15T14:43:30;38.05;;;34.15;;
46339;SDS011;47273;49.274;8.708;2022-11-15T14:45:56;36.58;;;32.90;;
46339;SDS011;47273;49.274;8.708;2022-11-15T14:48:22;34.45;;;31.02;;
46339;SDS011;47273;49.274;8.708;2022-11-15T14:50:48;33.90;;;28.23;;
46339;SDS011;47273;49.274;8.708;2022-11-15T14:53:15;30.70;;;27.38;;
46339;SDS011;47273;49.274;8.708;2022-11-15T14:55:41;31.00;;;28.05;;
46339;SDS011;47273;49.274;8.708;2022-11-15T14:58:07;31.25;;;28.30;;
46339;SDS011;47273;49.274;8.708;2022-11-15T15:00:37;48.90;;;41.15;;
46339;SDS011;47273;49.274;8.708;2022-11-15T15:03:04;49.65;;;41.42;;
46339;SDS011;47273;49.274;8.708;2022-11-15T15:07:58;41.92;;;37.47;;
46339;SDS011;47273;49.274;8.708;2022-11-15T15:10:24;40.80;;;34.45;;
46339;SDS011;47273;49.274;8.708;2022-11-15T15:12:55;41.53;;;36.00;;
46339;SDS011;47273;49.274;8.708;2022-11-15T15:15:25;36.53;;;32.92;;
46339;SDS011;47273;49.274;8.708;2022-11-15T15:17:55;37.53;;;33.55;;
46339;SDS011;47273;49.274;8.708;2022-11-15T15:20:20;37.80;;;33.70;;
46339;SDS011;47273;49.274;8.708;2022-11-15T15:22:46;65.38;;;46.65;;
46339;SDS011;47273;49.274;8.708;2022-11-15T15:25:32;53.63;;;42.95;;
46339;SDS011;47273;49.274;8.708;2022-11-15T15:28:01;33.80;;;30.60;;
46339;SDS011;47273;49.274;8.708;2022-11-15T15:30:28;31.98;;;28.17;;
46339;SDS011;47273;49.274;8.708;2022-11-15T15:32:55;30.10;;;27.35;;
46339;SDS011;47273;49.274;8.708;2022-11-15T15:35:21;31.83;;;28.67;;
46339;SDS011;47273;49.274;8.708;2022-11-15T15:37:48;33.05;;;29.73;;
46339;SDS011;47273;49.274;8.708;2022-11-15T15:40:21;34.75;;;31.05;;
46339;SDS011;47273;49.274;8.708;2022-11-15T15:42:48;32.15;;;28.92;;
46339;SDS011;47273;49.274;8.708;2022-11-15T15:45:14;30.38;;;27.35;;
46339;SDS011;47273;49.274;8.708;2022-11-15T15:47:41;29.17;;;26.40;;
46339;SDS011;47273;49.274;8.708;2022-11-15T15:50:26;29.02;;;26.17;;
46339;SDS011;47273;49.274;8.708;2022-11-15T15:53:00;30.55;;;26.60;;
46339;SDS011;47273;49.274;8.708;2022-11-15T15:55:28;30.40;;;27.30;;
46339;SDS011;47273;49.274;8.708;2022-11-15T15:57:54;31.08;;;27.85;;
46339;SDS011;47273;49.274;8.708;2022-11-15T16:00:20;32.38;;;29.05;;
46339;SDS011;47273;49.274;8.708;2022-11-15T16:02:48;36.78;;;28.73;;
46339;SDS011;47273;49.274;8.708;2022-11-15T16:05:14;31.63;;;28.35;;
46339;SDS011;47273;49.274;8.708;2022-11-15T16:07:40;33.40;;;28.83;;
46339;SDS011;47273;49.274;8.708;2022-11-15T16:10:22;31.20;;;27.90;;
46339;SDS011;47273;49.274;8.708;2022-11-15T16:12:52;31.58;;;28.15;;
46339;SDS011;47273;49.274;8.708;2022-11-15T16:15:19;31.23;;;28.42;;
46339;SDS011;47273;49.274;8.708;2022-11-15T16:17:55;29.45;;;26.80;;
46339;SDS011;47273;49.274;8.708;2022-11-15T16:20:24;29.88;;;26.75;;
46339;SDS011;47273;49.274;8.708;2022-11-15T16:23:07;30.58;;;26.63;;
46339;SDS011;47273;49.274;8.708;2022-11-15T16:25:37;32.83;;;27.45;;
46339;SDS011;47273;49.274;8.708;2022-11-15T16:28:05;31.48;;;28.15;;
46339;SDS011;47273;49.274;8.708;2022-11-15T16:30:38;35.22;;;27.30;;
46339;SDS011;47273;49.274;8.708;2022-11-15T16:33:04;30.90;;;27.80;;
46339;SDS011;47273;49.274;8.708;2022-11-15T16:35:29;32.17;;;28.15;;
46339;SDS011;47273;49.274;8.708;2022-11-15T16:37:55;32.83;;;28.42;;
46339;SDS011;47273;49.274;8.708;2022-11-15T16:42:55;33.53;;;29.92;;
46339;SDS011;47273;49.274;8.708;2022-11-15T16:45:22;38.28;;;34.13;;
46339;SDS011;47273;49.274;8.708;2022-11-15T16:47:48;42.03;;;33.53;;
46339;SDS011;47273;49.274;8.708;2022-11-15T16:52:51;38.47;;;33.72;;
46339;SDS011;47273;49.274;8.708;2022-11-15T16:55:28;33.42;;;29.92;;
46339;SDS011;47273;49.274;8.708;2022-11-15T16:58:22;29.92;;;26.83;;
46339;SDS011;47273;49.274;8.708;2022-11-15T17:00:51;29.75;;;26.33;;
46339;SDS011;47273;49.274;8.708;2022-11-15T17:03:18;37.22;;;31.10;;
46339;SDS011;47273;49.274;8.708;2022-11-15T17:05:44;51.63;;;36.65;;
46339;SDS011;47273;49.274;8.708;2022-11-15T17:08:10;122.10;;;88.05;;
46339;SDS011;47273;49.274;8.708;2022-11-15T17:10:37;83.28;;;57.78;;
46339;SDS011;47273;49.274;8.708;2022-11-15T17:13:16;60.83;;;45.17;;
46339;SDS011;47273;49.274;8.708;2022-11-15T17:15:42;58.90;;;43.90;;
46339;SDS011;47273;49.274;8.708;2022-11-15T17:18:10;68.43;;;46.42;;
46339;SDS011;47273;49.274;8.708;2022-11-15T17:20:37;34.72;;;31.00;;
46339;SDS011;47273;49.274;8.708;2022-11-15T17:23:04;36.47;;;32.13;;
46339;SDS011;47273;49.274;8.708;2022-11-15T17:25:36;41.33;;;32.22;;
46339;SDS011;47273;49.274;8.708;2022-11-15T17:28:01;35.28;;;30.27;;
46339;SDS011;47273;49.274;8.708;2022-11-15T17:30:27;39.72;;;30.13;;
46339;SDS011;47273;49.274;8.708;2022-11-15T17:32:53;36.90;;;28.75;;
46339;SDS011;47273;49.274;8.708;2022-11-15T17:35:20;42.17;;;32.42;;
46339;SDS011;47273;49.274;8.708;2022-11-15T17:37:45;38.25;;;32.83;;
46339;SDS011;47273;49.274;8.708;2022-11-15T17:40:12;44.80;;;31.25;;
46339;SDS011;47273;49.274;8.708;2022-11-15T17:42:39;40.97;;;32.35;;
46339;SDS011;47273;49.274;8.708;2022-11-15T17:45:05;34.63;;;29.45;;
46339;SDS011;47273;49.274;8.708;2022-11-15T17:47:31;34.60;;;31.08;;
46339;SDS011;47273;49.274;8.708;2022-11-15T17:49:57;32.55;;;27.45;;
46339;SDS011;47273;49.274;8.708;2022-11-15T17:52:23;33.83;;;28.60;;
46339;SDS011;47273;49.274;8.708;2022-11-15T17:54:48;31.98;;;28.58;;
46339;SDS011;47273;49.274;8.708;2022-11-15T17:57:14;31.50;;;28.27;;
46339;SDS011;47273;49.274;8.708;2022-11-15T17:59:40;33.78;;;28.33;;
46339;SDS011;47273;49.274;8.708;2022-11-15T18:02:05;30.85;;;27.70;;
46339;SDS011;47273;49.274;8.708;2022-11-15T18:04:31;34.65;;;29.15;;
46339;SDS011;47273;49.274;8.708;2022-11-15T18:06:56;35.28;;;28.92;;
46339;SDS011;47273;49.274;8.708;2022-11-15T18:09:22;31.25;;;28.20;;
46339;SDS011;47273;49.274;8.708;2022-11-15T18:11:49;38.03;;;32.63;;
46339;SDS011;47273;49.274;8.708;2022-11-15T18:14:16;93.93;;;60.00;;
46339;SDS011;47273;49.274;8.708;2022-11-15T18:16:42;87.40;;;61.53;;
46339;SDS011;47273;49.274;8.708;2022-11-15T18:19:08;65.65;;;48.67;;
46339;SDS011;47273;49.274;8.708;2022-11-15T18:21:38;63.38;;;48.80;;
46339;SDS011;47273;49.274;8.708;2022-11-15T18:24:21;64.70;;;44.20;;
46339;SDS011;47273;49.274;8.708;2022-11-15T18:26:58;56.45;;;42.30;;
46339;SDS011;47273;49.274;8.708;2022-11-15T18:29:24;43.50;;;35.75;;
46339;SDS011;47273;49.274;8.708;2022-11-15T18:31:51;41.70;;;36.13;;
46339;SDS011;47273;49.274;8.708;2022-11-15T18:34:20;42.28;;;34.30;;
46339;SDS011;47273;49.274;8.708;2022-11-15T18:36:48;40.05;;;32.53;;
46339;SDS011;47273;49.274;8.708;2022-11-15T18:39:16;34.45;;;30.88;;
46339;SDS011;47273;49.274;8.708;2022-11-15T18:41:42;34.10;;;30.60;;
46339;SDS011;47273;49.274;8.708;2022-11-15T18:44:10;35.08;;;31.25;;
46339;SDS011;47273;49.274;8.708;2022-11-15T18:46:36;41.35;;;36.95;;
46339;SDS011;47273;49.274;8.708;2022-11-15T18:49:03;43.55;;;38.85;;
46339;SDS011;47273;49.274;8.708;2022-11-15T18:51:33;48.95;;;42.08;;
46339;SDS011;47273;49.274;8.708;2022-11-15T18:54:01;58.25;;;49.35;;
46339;SDS011;47273;49.274;8.708;2022-11-15T18:56:28;59.63;;;52.33;;
46339;SDS011;47273;49.274;8.708;2022-11-15T18:58:56;98.45;;;76.88;;
46339;SDS011;47273;49.274;8.708;2022-11-15T19:01:24;76.68;;;60.60;;
46339;SDS011;47273;49.274;8.708;2022-11-15T19:03:55;75.20;;;62.38;;
46339;SDS011;47273;49.274;8.708;2022-11-15T19:06:23;125.72;;;92.65;;
46339;SDS011;47273;49.274;8.708;2022-11-15T19:08:51;120.05;;;88.75;;
46339;SDS011;47273;49.274;8.708;2022-11-15T19:11:22;133.38;;;91.10;;
46339;SDS011;47273;49.274;8.708;2022-11-15T19:13:59;114.68;;;75.10;;
46339;SDS011;47273;49.274;8.708;2022-11-15T19:16:30;112.50;;;71.53;;
46339;SDS011;47273;49.274;8.708;2022-11-15T19:18:59;135.65;;;87.50;;
46339;SDS011;47273;49.274;8.708;2022-11-15T19:21:26;61.30;;;46.95;;
46339;SDS011;47273;49.274;8.708;2022-11-15T19:23:53;46.00;;;41.15;;
46339;SDS011;47273;49.274;8.708;2022-11-15T19:26:20;40.70;;;36.40;;
46339;SDS011;47273;49.274;8.708;2022-11-15T19:28:50;38.15;;;34.03;;
46339;SDS011;47273;49.274;8.708;2022-11-15T19:31:19;37.90;;;34.08;;
46339;SDS011;47273;49.274;8.708;2022-11-15T19:33:47;36.97;;;33.30;;
46339;SDS011;47273;49.274;8.708;2022-11-15T19:36:18;41.15;;;34.28;;
46339;SDS011;47273;49.274;8.708;2022-11-15T19:38:46;51.22;;;44.47;;
46339;SDS011;47273;49.274;8.708;2022-11-15T19:41:12;41.60;;;37.17;;
46339;SDS011;47273;49.274;8.708;2022-11-15T19:43:40;37.10;;;33.20;;
46339;SDS011;47273;49.274;8.708;2022-11-15T19:46:06;36.90;;;32.85;;
46339;SDS011;47273;49.274;8.708;2022-11-15T19:48:33;35.05;;;31.20;;
46339;SDS011;47273;49.274;8.708;2022-11-15T19:51:00;32.83;;;29.15;;
46339;SDS011;47273;49.274;8.708;2022-11-15T19:53:27;34.15;;;30.63;;
46339;SDS011;47273;49.274;8.708;2022-11-15T19:55:54;33.05;;;29.65;;
46339;SDS011;47273;49.274;8.708;2022-11-15T19:58:21;33.72;;;30.02;;
46339;SDS011;47273;49.274;8.708;2022-11-15T20:00:47;34.55;;;30.95;;
46339;SDS011;47273;49.274;8.708;2022-11-15T20:03:13;31.92;;;28.52;;
46339;SDS011;47273;49.274;8.708;2022-11-15T20:05:39;33.13;;;29.33;;
46339;SDS011;47273;49.274;8.708;2022-11-15T20:08:04;32.67;;;29.17;;
46339;SDS011;47273;49.274;8.708;2022-11-15T20:10:33;36.35;;;30.65;;
46339;SDS011;47273;49.274;8.708;2022-11-15T20:13:02;33.50;;;30.10;;
46339;SDS011;47273;49.274;8.708;2022-11-15T20:15:27;33.33;;;29.80;;
46339;SDS011;47273;49.274;8.708;2022-11-15T20:17:58;34.65;;;30.58;;
46339;SDS011;47273;49.274;8.708;2022-11-15T20:20:24;33.15;;;28.83;;
46339;SDS011;47273;49.274;8.708;2022-11-15T20:22:50;32.03;;;28.83;;
46339;SDS011;47273;49.274;8.708;2022-11-15T20:25:17;31.27;;;28.27;;
46339;SDS011;47273;49.274;8.708;2022-11-15T20:27:47;33.50;;;29.27;;
46339;SDS011;47273;49.274;8.708;2022-11-15T20:30:13;32.50;;;29.17;;
46339;SDS011;47273;49.274;8.708;2022-11-15T20:32:39;34.13;;;29.98;;
46339;SDS011;47273;49.274;8.708;2022-11-15T20:35:05;34.42;;;30.80;;
46339;SDS011;47273;49.274;8.708;2022-11-15T20:37:32;32.90;;;29.27;;
46339;SDS011;47273;49.274;8.708;2022-11-15T20:39:59;33.65;;;29.95;;
46339;SDS011;47273;49.274;8.708;2022-11-15T20:42:24;37.13;;;31.80;;
46339;SDS011;47273;49.274;8.708;2022-11-15T20:44:50;35.00;;;31.45;;